»·PEaware :: N818PR KOXR-KSDM

N818PR :: KOXR-KSDM

FLIGHT INFORMATION

Flight Status: Arrived
Operator: Privately registered:
United States
More flights under this callsign
Pilot: Anonymous 17765 (17765)
Aircraft: BEECH AIRCRAFT BONANZA
(BE36)
More flights by this aircraft type
Origin: KOXR Oxnard
United States
Destination: KSDM Brown Mun
United States
More flights between these airports :: More routes between these airports
Route: VTU044 GINNA V326 VNY V186 HAILE V66 MZB
File this flight plan on PilotEdge
Remarks: VTUP26
Altitude:
(Current/Filed)
9,000ft
Speed:
(Current/Filed)
170kts
Departed: 27-Dec-20 09:26 PM
Arrived: 27-Dec-20 10:46 PM
Distance/Time
Traveled:
148nm/1:20
Distance/Time
To Go:
Arrived

Flight Plot

Page will automatically refresh every two minutes.


Map Options




Map Legend


Flown Route
Filed Route
Departure Airport
Arrival Airport
Navaid (VOR, NDB)
Fix

Horizontal Profiles

Position Reports

Time Latitude Longitude Heading Altitude Ground
Speed
27-Dec-20 20:34 34.199330 -119.206689 181 45ft 0kts
27-Dec-20 20:35 34.199330 -119.206689 181 45ft 0kts
27-Dec-20 20:36 34.199330 -119.206689 181 45ft 0kts
27-Dec-20 20:37 34.199330 -119.206689 181 45ft 0kts
27-Dec-20 20:38 34.199330 -119.206689 181 45ft 0kts
27-Dec-20 20:39 34.199330 -119.206689 181 45ft 0kts
27-Dec-20 20:40 34.199330 -119.206689 181 45ft 0kts
27-Dec-20 20:41 34.199330 -119.206689 181 45ft 0kts
27-Dec-20 20:42 34.199330 -119.206689 181 45ft 0kts
27-Dec-20 20:43 34.199330 -119.206689 181 45ft 0kts
27-Dec-20 20:44 34.199330 -119.206689 181 45ft 0kts
27-Dec-20 20:45 34.199330 -119.206689 181 45ft 0kts
27-Dec-20 20:46 34.199330 -119.206689 181 45ft 0kts
27-Dec-20 20:47 34.199330 -119.206689 181 45ft 0kts
27-Dec-20 20:48 34.199330 -119.206689 181 45ft 0kts
27-Dec-20 20:49 34.199330 -119.206689 181 45ft 0kts
27-Dec-20 20:50 34.199330 -119.206689 181 45ft 0kts
27-Dec-20 20:51 34.199330 -119.206689 181 45ft 0kts
27-Dec-20 20:52 34.199330 -119.206689 181 45ft 0kts
27-Dec-20 20:53 34.199330 -119.206689 181 45ft 0kts
27-Dec-20 20:54 34.199330 -119.206689 181 45ft 0kts
27-Dec-20 20:55 34.199330 -119.206689 181 45ft 0kts
27-Dec-20 20:56 34.199330 -119.206689 181 45ft 0kts
27-Dec-20 20:57 34.199330 -119.206689 181 45ft 0kts
27-Dec-20 20:58 34.199330 -119.206689 181 45ft 0kts
27-Dec-20 20:59 34.199330 -119.206689 181 45ft 0kts
27-Dec-20 21:00 34.199330 -119.206689 181 45ft 0kts
27-Dec-20 21:01 34.199330 -119.206689 181 45ft 0kts
27-Dec-20 21:02 34.199330 -119.206689 181 45ft 0kts
27-Dec-20 21:03 34.199330 -119.206689 181 45ft 0kts
27-Dec-20 21:04 34.199330 -119.206689 181 45ft 0kts
27-Dec-20 21:05 34.199330 -119.206689 181 45ft 0kts
27-Dec-20 21:06 34.199330 -119.206689 181 45ft 0kts
27-Dec-20 21:07 34.199330 -119.206689 181 45ft 0kts
27-Dec-20 21:08 34.199330 -119.206689 181 45ft 0kts
27-Dec-20 21:09 34.199330 -119.206689 181 45ft 0kts
27-Dec-20 21:10 34.199330 -119.206689 181 45ft 0kts
27-Dec-20 21:11 34.199330 -119.206689 181 45ft 0kts
27-Dec-20 21:12 34.199330 -119.206689 181 45ft 0kts
27-Dec-20 21:13 34.199330 -119.206689 181 45ft 0kts
27-Dec-20 21:14 34.199330 -119.206689 181 45ft 0kts
27-Dec-20 21:15 34.199330 -119.206689 181 45ft 0kts
27-Dec-20 21:16 34.199330 -119.206689 181 45ft 0kts
27-Dec-20 21:17 34.199330 -119.206689 181 45ft 0kts
27-Dec-20 21:18 34.199330 -119.206689 181 45ft 0kts
27-Dec-20 21:19 34.199330 -119.206689 180 45ft 0kts
27-Dec-20 21:20 34.199330 -119.206689 179 45ft 0kts
27-Dec-20 21:21 34.199775 -119.203527 90 46ft 23kts
27-Dec-20 21:22 34.199767 -119.197786 63 43ft 0kts
27-Dec-20 21:23 34.199767 -119.197786 63 43ft 0kts
27-Dec-20 21:24 34.200235 -119.197506 352 43ft 0kts
27-Dec-20 21:25 34.200111 -119.211713 263 281ft 113kts
27-Dec-20 21:26 34.199124 -119.256979 268 1735ft 139kts
27-Dec-20 21:28 34.197973 -119.300615 267 3569ft 125kts
27-Dec-20 21:29 34.196565 -119.352877 268 3978ft 177kts
27-Dec-20 21:30 34.198268 -119.413113 305 3996ft 182kts
27-Dec-20 21:31 34.224956 -119.396813 78 5213ft 137kts
27-Dec-20 21:32 34.226430 -119.351149 88 6238ft 138kts
27-Dec-20 21:33 34.229444 -119.303717 88 7224ft 144kts
27-Dec-20 21:34 34.233166 -119.249016 86 7129ft 187kts
27-Dec-20 21:35 34.232148 -119.187295 86 6996ft 181kts
27-Dec-20 21:36 34.232640 -119.127140 91 6996ft 178kts
27-Dec-20 21:37 34.231894 -119.067686 91 6997ft 177kts
27-Dec-20 21:38 34.231186 -119.008997 91 6997ft 176kts
27-Dec-20 21:39 34.230441 -118.950051 91 6997ft 175kts
27-Dec-20 21:40 34.229700 -118.891313 91 6996ft 175kts
27-Dec-20 21:41 34.228902 -118.832427 91 6997ft 175kts
27-Dec-20 21:42 34.227501 -118.773878 92 6996ft 174kts
27-Dec-20 21:43 34.226381 -118.715302 91 6989ft 173kts
27-Dec-20 21:43 34.225685 -118.666687 90 6989ft 174kts
27-Dec-20 21:45 34.224674 -118.598574 91 6996ft 173kts
27-Dec-20 21:46 34.223767 -118.541279 91 6995ft 167kts
27-Dec-20 21:46 34.223046 -118.494764 91 6997ft 165kts
27-Dec-20 21:47 34.208186 -118.442615 111 6997ft 165kts
27-Dec-20 21:49 34.189802 -118.381645 109 6997ft 166kts
27-Dec-20 21:49 34.176610 -118.338072 109 6997ft 166kts
27-Dec-20 21:50 34.160697 -118.285699 109 6997ft 166kts
27-Dec-20 21:51 34.144785 -118.233407 109 6972ft 166kts
27-Dec-20 21:52 34.128878 -118.181065 109 6967ft 165kts
27-Dec-20 21:53 34.112938 -118.128987 109 6970ft 166kts
27-Dec-20 21:54 34.097156 -118.076631 108 6968ft 166kts
27-Dec-20 21:55 34.081588 -118.024563 110 6996ft 165kts
27-Dec-20 21:56 34.065608 -117.972734 110 6998ft 167kts
27-Dec-20 21:57 34.049396 -117.920118 110 6997ft 168kts
27-Dec-20 21:58 34.033136 -117.867236 110 6990ft 169kts
27-Dec-20 21:59 34.016739 -117.814605 110 6988ft 169kts
27-Dec-20 22:00 34.000441 -117.761564 110 7002ft 168kts
27-Dec-20 22:01 33.982292 -117.709450 112 7006ft 169kts
27-Dec-20 22:02 33.964062 -117.657536 113 7005ft 168kts
27-Dec-20 22:03 33.945631 -117.605584 113 7006ft 169kts
27-Dec-20 22:04 33.927344 -117.553802 113 7005ft 168kts
27-Dec-20 22:05 33.900362 -117.511835 150 7312ft 155kts
27-Dec-20 22:06 33.864931 -117.484587 146 7903ft 148kts
27-Dec-20 22:07 33.831218 -117.456306 147 8503ft 147kts
27-Dec-20 22:08 33.797679 -117.428193 147 8978ft 153kts
27-Dec-20 22:09 33.760767 -117.397318 147 8973ft 165kts
27-Dec-20 22:10 33.722498 -117.365329 147 8968ft 168kts
27-Dec-20 22:11 33.684142 -117.333202 148 8973ft 167kts
27-Dec-20 22:12 33.646112 -117.301545 149 8974ft 166kts
27-Dec-20 22:13 33.607806 -117.270258 148 8975ft 166kts
27-Dec-20 22:14 33.569873 -117.238205 147 8980ft 166kts
27-Dec-20 22:15 33.531654 -117.206932 149 9016ft 167kts
27-Dec-20 22:16 33.491156 -117.185708 188 9019ft 161kts
27-Dec-20 22:17 33.446858 -117.195895 192 9017ft 163kts
27-Dec-20 22:18 33.402504 -117.205954 192 9014ft 162kts
27-Dec-20 22:19 33.358094 -117.215647 192 8988ft 162kts
27-Dec-20 22:20 33.313662 -117.225162 192 8988ft 162kts
27-Dec-20 22:21 33.269372 -117.234523 192 8988ft 161kts
27-Dec-20 22:22 33.224701 -117.243854 192 8979ft 163kts
27-Dec-20 22:23 33.179986 -117.253042 192 8979ft 163kts
27-Dec-20 22:24 33.135113 -117.262151 192 8977ft 164kts
27-Dec-20 22:25 33.090484 -117.271093 192 8979ft 162kts
27-Dec-20 22:26 33.046061 -117.279904 192 8978ft 162kts
27-Dec-20 22:27 32.996519 -117.296190 200 7456ft 187kts
27-Dec-20 22:28 32.946994 -117.315910 198 6328ft 195kts
27-Dec-20 22:29 32.894487 -117.335895 197 4833ft 199kts
27-Dec-20 22:30 32.841921 -117.356545 197 3345ft 199kts
27-Dec-20 22:31 32.792577 -117.376440 197 3003ft 176kts
27-Dec-20 22:32 32.747886 -117.385641 148 3400ft 159kts
27-Dec-20 22:33 32.716281 -117.349230 134 3976ft 159kts
27-Dec-20 22:34 32.683517 -117.309839 134 4007ft 172kts
27-Dec-20 22:35 32.649725 -117.269266 134 4007ft 173kts
27-Dec-20 22:36 32.622816 -117.223399 108 3775ft 168kts
27-Dec-20 22:37 32.607035 -117.173667 113 2489ft 142kts
27-Dec-20 22:38 32.595845 -117.133537 105 2480ft 123kts
27-Dec-20 22:39 32.586752 -117.093665 96 2202ft 142kts
27-Dec-20 22:40 32.579726 -117.052200 103 1506ft 121kts
27-Dec-20 22:41 32.577320 -117.014178 71 1031ft 110kts
27-Dec-20 22:42 32.586337 -116.981078 70 992ft 111kts
27-Dec-20 22:43 32.589024 -116.949176 161 1117ft 105kts
27-Dec-20 22:44 32.571371 -116.965296 274 617ft 87kts
27-Dec-20 22:45 32.571404 -116.974100 186 511ft 0kts
27-Dec-20 22:46 32.570741 -116.974201 187 507ft 16kts
27-Dec-20 22:47 32.570340 -116.980213 275 522ft 31kts
27-Dec-20 22:48 32.570649 -116.985856 209 524ft 0kts
27-Dec-20 22:49 32.570649 -116.985856 209 524ft 0kts

Navigation Log

Ident Type
Flight plan parsing failed, navigation log unavailable